createdAt,value
2018-06-10T00:00:03.364Z,125.92
2018-06-10T00:02:42.832Z,127.10
2018-06-10T00:05:14.932Z,126.58
2018-06-10T00:07:46.192Z,122.62
2018-06-10T00:10:17.609Z,121.65
2018-06-10T00:12:48.848Z,125.92
2018-06-10T00:15:25.138Z,123.90
2018-06-10T00:17:56.349Z,117.55
2018-06-10T00:20:27.690Z,124.40
2018-06-10T00:22:58.792Z,125.02
2018-06-10T00:25:30.211Z,124.97
2018-06-10T00:28:01.341Z,118.50
2018-06-10T00:30:32.190Z,111.30
2018-06-10T00:33:03.344Z,115.67
2018-06-10T00:35:34.568Z,111.77
2018-06-10T00:38:05.656Z,124.60
2018-06-10T00:40:56.926Z,122.95
2018-06-10T00:43:28.160Z,126.47
2018-06-10T00:45:59.763Z,128.07
2018-06-10T00:48:31.060Z,125.72
2018-06-10T00:51:02.356Z,124.22
2018-06-10T00:53:45.319Z,125.75
2018-06-10T00:56:27.422Z,124.72
2018-06-10T00:58:58.822Z,123.30
2018-06-10T01:01:30.089Z,131.37
2018-06-10T01:04:01.201Z,127.78
2018-06-10T01:06:32.636Z,133.05
2018-06-10T01:09:04.002Z,127.25
2018-06-10T01:11:35.328Z,128.93
2018-06-10T01:14:06.704Z,125.05
2018-06-10T01:16:38.028Z,126.92
2018-06-10T01:19:09.210Z,127.50
2018-06-10T01:21:40.377Z,129.65
2018-06-10T01:24:11.691Z,125.62
2018-06-10T01:26:48.553Z,129.97
2018-06-10T01:29:20.123Z,128.42
2018-06-10T01:31:50.991Z,127.15
2018-06-10T01:34:21.843Z,125.85
2018-06-10T01:36:52.688Z,123.70
2018-06-10T01:39:26.087Z,128.80
2018-06-10T01:41:57.483Z,118.70
2018-06-10T01:44:28.589Z,117.08
2018-06-10T01:46:59.741Z,112.50
2018-06-10T01:49:31.010Z,115.60
2018-06-10T01:52:02.340Z,122.87
2018-06-10T01:54:33.423Z,114.35
2018-06-10T01:57:04.652Z,113.05
2018-06-10T01:59:35.745Z,122.85
2018-06-10T02:02:06.861Z,126.02
2018-06-10T02:04:37.960Z,115.52
2018-06-10T02:07:09.305Z,120.90
2018-06-10T02:09:40.481Z,120.87
2018-06-10T02:12:12.099Z,120.30
2018-06-10T02:14:43.346Z,116.33
2018-06-10T02:17:14.383Z,114.47
2018-06-10T02:22:45.123Z,117.70
2018-06-10T02:25:16.370Z,114.10
2018-06-10T02:27:47.448Z,120.65
2018-06-10T02:30:18.793Z,116.97
2018-06-10T02:32:49.990Z,121.35
2018-06-10T02:35:21.179Z,120.47
2018-06-10T02:37:54.049Z,122.55
2018-06-10T02:40:25.108Z,118.15
2018-06-10T02:42:56.165Z,119.90
2018-06-10T02:45:27.265Z,119.87
2018-06-10T02:47:58.772Z,118.10
2018-06-10T02:50:30.065Z,114.22
2018-06-10T02:53:01.548Z,118.28
2018-06-10T02:55:32.672Z,121.22
2018-06-10T02:58:04.177Z,120.37
2018-06-10T03:00:35.186Z,147.17
2018-06-10T03:03:06.287Z,146.75
2018-06-10T03:05:37.410Z,137.88
2018-06-10T03:08:08.560Z,126.22
2018-06-10T03:10:39.761Z,121.10
2018-06-10T03:13:11.455Z,116.90
2018-06-10T03:15:42.673Z,119.02
2018-06-10T03:18:14.242Z,122.80
2018-06-10T03:20:45.456Z,123.15
2018-06-10T03:23:16.638Z,122.62
2018-06-10T03:25:47.727Z,119.93
2018-06-10T03:28:18.768Z,116.22
2018-06-10T03:30:49.858Z,119.25
2018-06-10T03:33:20.958Z,119.35
2018-06-10T03:36:05.718Z,111.15
2018-06-10T03:38:36.756Z,113.28
2018-06-10T03:41:07.949Z,111.83
2018-06-10T03:43:45.684Z,112.20
2018-06-10T03:46:16.889Z,114.67
2018-06-10T03:48:48.220Z,115.03
2018-06-10T03:51:19.363Z,132.10
2018-06-10T03:53:50.705Z,135.05
2018-06-10T03:56:21.936Z,124.87
2018-06-10T03:58:53.296Z,123.07
2018-06-10T04:01:24.346Z,115.90
2018-06-10T04:03:55.443Z,115.62
2018-06-10T04:06:26.548Z,121.15
2018-06-10T04:08:57.708Z,119.80
2018-06-10T04:11:28.793Z,115.55
2018-06-10T04:13:59.887Z,113.28
2018-06-10T04:16:38.844Z,113.55
2018-06-10T04:19:09.990Z,118.75
2018-06-10T04:21:41.151Z,122.02
2018-06-10T04:27:11.038Z,115.77
2018-06-10T04:29:42.553Z,121.53
2018-06-10T04:32:25.459Z,115.45
2018-06-10T04:34:56.552Z,115.65
2018-06-10T04:37:27.745Z,118.40
2018-06-10T04:39:58.992Z,116.50
2018-06-10T04:42:30.178Z,120.62
2018-06-10T04:45:01.601Z,121.87
2018-06-10T04:47:32.704Z,123.38
2018-06-10T04:50:04.000Z,117.60
2018-06-10T04:52:35.668Z,116.03
2018-06-10T04:55:07.150Z,115.92
2018-06-10T04:57:38.472Z,117.95
2018-06-10T05:00:22.863Z,116.37
2018-06-10T05:02:54.030Z,117.97
2018-06-10T05:05:25.120Z,117.67
2018-06-10T05:07:56.448Z,117.65
2018-06-10T05:10:27.590Z,124.72
2018-06-10T05:12:59.019Z,123.50
2018-06-10T05:15:30.568Z,121.72
2018-06-10T05:18:01.615Z,124.85
2018-06-10T05:20:32.753Z,124.10
2018-06-10T05:23:04.044Z,121.97
2018-06-10T05:25:35.453Z,116.00
2018-06-10T05:28:06.701Z,122.20
2018-06-10T05:30:38.152Z,123.40
2018-06-10T05:33:09.339Z,119.28
2018-06-10T05:35:42.966Z,120.85
2018-06-10T05:38:14.085Z,120.05
2018-06-10T05:43:40.508Z,124.18
2018-06-10T05:46:11.961Z,127.53
2018-06-10T05:48:43.308Z,125.15
2018-06-10T05:51:14.562Z,122.30
2018-06-10T05:53:45.896Z,121.85
2018-06-10T05:56:17.336Z,125.92
2018-06-10T05:58:48.392Z,134.32
2018-06-10T06:01:30.923Z,134.55
2018-06-10T06:04:02.152Z,126.25
2018-06-10T06:06:33.323Z,129.53
2018-06-10T06:09:13.824Z,131.18
2018-06-10T06:11:45.001Z,125.62
2018-06-10T06:14:16.278Z,120.53
2018-06-10T06:16:47.401Z,125.47
2018-06-10T06:19:18.564Z,130.12
2018-06-10T06:21:49.752Z,126.38
2018-06-10T06:24:20.919Z,133.55
2018-06-10T06:26:52.002Z,127.53
2018-06-10T06:29:32.293Z,131.85
2018-06-10T06:32:03.740Z,128.97
2018-06-10T06:34:35.023Z,126.60
2018-06-10T06:40:07.744Z,129.32
2018-06-10T06:42:38.928Z,127.87
2018-06-10T06:48:16.861Z,130.35
2018-06-10T06:50:48.009Z,126.02
2018-06-10T06:53:23.558Z,123.18
2018-06-10T06:55:54.836Z,124.80
2018-06-10T06:58:26.063Z,128.15
2018-06-10T07:03:58.968Z,135.65
2018-06-10T07:06:29.916Z,128.82
2018-06-10T07:11:57.829Z,127.78
2018-06-10T07:14:29.243Z,137.15
2018-06-10T07:17:00.432Z,138.07
2018-06-10T07:19:31.590Z,126.80
2018-06-10T07:22:02.792Z,131.37
2018-06-10T07:24:54.605Z,127.78
2018-06-10T07:27:25.674Z,117.77
2018-06-10T07:29:56.874Z,123.78
2018-06-10T07:32:27.993Z,129.78
2018-06-10T07:34:59.498Z,125.67
2018-06-10T07:37:30.768Z,122.22
2018-06-10T07:40:05.572Z,119.77
2018-06-10T07:42:36.753Z,119.93
2018-06-10T07:45:08.261Z,119.57
2018-06-10T07:47:51.824Z,122.55
2018-06-10T07:50:23.187Z,124.75
2018-06-10T07:52:54.516Z,121.37
2018-06-10T07:55:26.059Z,120.50
2018-06-10T07:57:57.338Z,127.78
2018-06-10T08:00:28.708Z,127.47
2018-06-10T08:02:59.553Z,126.72
2018-06-10T08:05:30.782Z,122.95
2018-06-10T08:08:01.735Z,128.40
2018-06-10T08:10:32.945Z,128.40
2018-06-10T08:13:03.825Z,126.10
2018-06-10T08:15:34.671Z,130.27
2018-06-10T08:18:05.852Z,126.38
2018-06-10T08:20:37.138Z,126.27
2018-06-10T08:23:09.469Z,126.25
2018-06-10T08:25:40.897Z,131.75
2018-06-10T08:28:11.980Z,122.75
2018-06-10T08:30:43.384Z,128.20
2018-06-10T08:33:14.239Z,118.47
2018-06-10T08:35:45.680Z,127.30
2018-06-10T08:38:16.742Z,129.65
2018-06-10T08:40:47.864Z,127.02
2018-06-10T08:43:19.550Z,126.15
2018-06-10T08:45:51.100Z,127.95
2018-06-10T08:48:22.516Z,129.10
2018-06-10T08:50:54.032Z,128.20
2018-06-10T08:53:25.229Z,131.55
2018-06-10T08:55:56.689Z,129.63
2018-06-10T08:58:46.757Z,129.63
2018-06-10T09:01:18.174Z,126.12
2018-06-10T09:03:49.268Z,134.05
2018-06-10T09:06:20.805Z,127.15
2018-06-10T09:08:52.020Z,129.60
2018-06-10T09:11:23.707Z,130.52
2018-06-10T09:13:54.861Z,128.27
2018-06-10T09:16:26.404Z,127.75
2018-06-10T09:19:09.936Z,129.78
2018-06-10T09:21:42.006Z,123.05
2018-06-10T09:24:13.890Z,125.80
2018-06-10T09:26:45.168Z,138.03
2018-06-10T09:29:16.404Z,135.93
2018-06-10T09:31:47.876Z,128.70
2018-06-10T09:34:19.192Z,132.55
2018-06-10T09:36:50.386Z,132.82
2018-06-10T09:39:21.247Z,133.40
2018-06-10T09:41:52.536Z,139.37
2018-06-10T09:44:23.364Z,131.10
2018-06-10T09:47:08.376Z,134.50
2018-06-10T09:49:39.681Z,134.30
2018-06-10T09:52:11.089Z,131.25
2018-06-10T09:54:54.396Z,130.57
2018-06-10T09:57:25.701Z,133.43
2018-06-10T09:59:56.624Z,131.37
2018-06-10T10:02:27.923Z,140.18
2018-06-10T10:04:58.772Z,132.20
2018-06-10T10:07:29.757Z,136.07
2018-06-10T10:10:01.096Z,132.43
2018-06-10T10:12:32.627Z,131.43
2018-06-10T10:15:03.898Z,135.00
2018-06-10T10:17:35.092Z,135.82
2018-06-10T10:20:06.185Z,136.45
2018-06-10T10:22:37.406Z,134.60
2018-06-10T10:25:08.435Z,130.43
2018-06-10T10:27:40.040Z,132.85
2018-06-10T10:30:11.165Z,137.77
2018-06-10T10:32:42.801Z,136.90
2018-06-10T10:35:13.942Z,136.12
2018-06-10T10:37:45.525Z,139.07
2018-06-10T10:40:16.969Z,136.35
2018-06-10T10:42:48.291Z,138.30
2018-06-10T10:45:20.392Z,132.10
2018-06-10T10:47:51.859Z,132.60
2018-06-10T10:50:23.305Z,124.92
2018-06-10T10:52:54.606Z,130.00
2018-06-10T10:55:26.132Z,130.82
2018-06-10T10:57:57.509Z,126.40
2018-06-10T11:00:28.748Z,125.82
2018-06-10T11:03:07.481Z,124.70
2018-06-10T11:05:38.528Z,128.10
2018-06-10T11:08:09.617Z,131.75
2018-06-10T11:10:40.725Z,136.25
2018-06-10T11:13:11.973Z,127.60
2018-06-10T11:15:43.135Z,126.72
2018-06-10T11:18:14.268Z,130.18
2018-06-10T11:20:45.288Z,135.45
2018-06-10T11:23:16.973Z,127.27
2018-06-10T11:26:06.724Z,132.03
2018-06-10T11:28:38.068Z,126.35
2018-06-10T11:31:10.129Z,125.67
2018-06-10T11:33:41.914Z,137.40
2018-06-10T11:36:13.541Z,131.15
2018-06-10T11:38:44.981Z,127.32
2018-06-10T11:41:16.617Z,129.23
2018-06-10T11:43:47.912Z,129.35
2018-06-10T11:46:19.057Z,126.25
2018-06-10T11:48:50.496Z,128.72
2018-06-10T11:51:21.689Z,126.42
2018-06-10T11:53:52.529Z,130.40
2018-06-10T11:56:23.372Z,132.67
2018-06-10T11:58:54.440Z,128.32
2018-06-10T12:01:25.710Z,133.55
2018-06-10T12:04:18.657Z,130.93
2018-06-10T12:06:49.800Z,130.60
2018-06-10T12:09:21.485Z,126.87
2018-06-10T12:11:52.358Z,128.93
2018-06-10T12:14:24.203Z,123.75
2018-06-10T12:17:01.050Z,124.75
2018-06-10T12:19:32.484Z,126.62
2018-06-10T12:22:03.648Z,129.38
2018-06-10T12:24:34.768Z,134.30
2018-06-10T12:27:05.813Z,131.05
2018-06-10T12:29:37.268Z,129.97
2018-06-10T12:32:08.484Z,130.60
2018-06-10T12:34:39.647Z,129.80
2018-06-10T12:37:10.461Z,121.85
2018-06-10T12:39:41.595Z,131.03
2018-06-10T12:42:12.505Z,131.12
2018-06-10T12:44:43.540Z,135.28
2018-06-10T12:47:14.361Z,131.20
2018-06-10T12:49:45.253Z,131.30
2018-06-10T12:52:16.422Z,127.45
2018-06-10T12:54:47.528Z,130.65
2018-06-10T12:57:18.680Z,131.97
2018-06-10T12:59:50.076Z,128.15
2018-06-10T13:02:21.057Z,130.80
2018-06-10T13:04:52.325Z,117.72
2018-06-10T13:07:23.437Z,123.90
2018-06-10T13:09:54.570Z,119.47
2018-06-10T13:12:25.686Z,127.22
2018-06-10T13:14:57.032Z,121.67
2018-06-10T13:17:28.422Z,121.00
2018-06-10T13:20:15.909Z,124.92
2018-06-10T13:22:46.836Z,119.13
2018-06-10T13:25:17.739Z,121.17
2018-06-10T13:27:48.552Z,123.33
2018-06-10T13:30:19.845Z,122.70
2018-06-10T13:32:57.580Z,121.25
2018-06-10T13:35:29.181Z,125.67
2018-06-10T13:38:00.896Z,123.65
2018-06-10T13:40:31.891Z,123.07
2018-06-10T13:43:02.754Z,128.85
2018-06-10T13:45:34.052Z,131.52
2018-06-10T13:48:04.915Z,127.60
2018-06-10T13:50:36.277Z,128.75
2018-06-10T13:53:07.536Z,127.58
2018-06-10T13:55:38.973Z,133.20
2018-06-10T13:58:10.453Z,130.87
2018-06-10T14:00:41.612Z,126.27
2018-06-10T14:03:12.573Z,121.70
2018-06-10T14:05:44.581Z,124.75
2018-06-10T14:08:15.765Z,127.05
2018-06-10T14:10:51.392Z,125.58
2018-06-10T14:13:22.800Z,123.50
2018-06-10T14:15:54.087Z,127.75
2018-06-10T14:18:25.364Z,128.18
2018-06-10T14:20:56.524Z,122.87
2018-06-10T14:23:27.448Z,128.95
2018-06-10T14:25:58.952Z,121.80
2018-06-10T14:28:30.124Z,122.62
2018-06-10T14:31:01.357Z,121.57
2018-06-10T14:33:32.432Z,127.82
2018-06-10T14:36:03.605Z,128.72
2018-06-10T14:38:34.735Z,126.78
2018-06-10T14:41:05.580Z,132.93
2018-06-10T14:43:36.906Z,126.22
2018-06-10T14:46:12.799Z,135.60
2018-06-10T14:48:43.809Z,131.52
2018-06-10T14:51:15.296Z,136.35
2018-06-10T14:53:50.244Z,139.28
2018-06-10T14:56:21.356Z,130.82
2018-06-10T14:58:52.553Z,135.35
2018-06-10T15:01:26.215Z,133.80
2018-06-10T15:03:58.231Z,132.47
2018-06-10T15:06:30.065Z,130.72
2018-06-10T15:09:15.317Z,126.02
2018-06-10T15:11:46.668Z,134.03
2018-06-10T15:14:17.842Z,130.15
2018-06-10T15:16:49.225Z,134.18
2018-06-10T15:19:20.361Z,138.03
2018-06-10T15:21:51.667Z,131.90
2018-06-10T15:24:28.061Z,134.63
2018-06-10T15:26:59.536Z,134.63
2018-06-10T15:29:30.857Z,136.68
2018-06-10T15:32:02.624Z,141.28
2018-06-10T15:34:33.733Z,133.25
2018-06-10T15:37:05.093Z,135.05
2018-06-10T15:39:36.169Z,130.97
2018-06-10T15:42:07.201Z,135.57
2018-06-10T15:44:38.288Z,135.80
2018-06-10T15:47:09.523Z,139.00
2018-06-10T15:49:40.812Z,135.00
2018-06-10T15:52:12.481Z,136.75
2018-06-10T15:54:43.715Z,137.68
2018-06-10T15:57:15.078Z,135.05
2018-06-10T15:59:46.212Z,134.05
2018-06-10T16:02:17.443Z,135.00
2018-06-10T16:04:48.727Z,136.80
2018-06-10T16:07:20.264Z,134.35
2018-06-10T16:09:51.092Z,136.75
2018-06-10T16:12:22.978Z,136.37
2018-06-10T16:17:52.172Z,135.18
2018-06-10T16:20:25.032Z,135.32
2018-06-10T16:22:56.907Z,135.97
2018-06-10T16:25:27.871Z,133.15
2018-06-10T16:27:59.157Z,135.28
2018-06-10T16:30:30.204Z,138.80
2018-06-10T16:33:01.085Z,138.35
2018-06-10T16:35:32.725Z,132.67
2018-06-10T16:38:03.968Z,134.65
2018-06-10T16:40:35.407Z,134.52
2018-06-10T16:43:07.211Z,131.75
2018-06-10T16:45:38.609Z,136.10
2018-06-10T16:48:10.464Z,142.90
2018-06-10T16:50:41.896Z,137.40
2018-06-10T16:53:13.539Z,138.70
2018-06-10T16:55:45.355Z,137.95
2018-06-10T16:58:17.669Z,148.17
2018-06-10T17:00:49.959Z,143.70
2018-06-10T17:03:22.523Z,138.12
2018-06-10T17:05:54.308Z,136.70
2018-06-10T17:08:26.147Z,135.63
2018-06-10T17:10:57.849Z,132.10
2018-06-10T17:13:29.696Z,131.20
2018-06-10T17:16:00.850Z,130.85
2018-06-10T17:18:32.160Z,134.45
2018-06-10T17:21:18.727Z,137.97
2018-06-10T17:23:50.527Z,137.55
2018-06-10T17:26:21.829Z,133.30
2018-06-10T17:28:53.380Z,133.15
2018-06-10T17:31:24.686Z,132.87
2018-06-10T17:33:55.956Z,134.20
2018-06-10T17:36:31.609Z,138.97
2018-06-10T17:39:02.992Z,138.43
2018-06-10T17:41:34.319Z,139.68
2018-06-10T17:44:05.655Z,133.32
2018-06-10T17:46:36.808Z,134.60
2018-06-10T17:49:20.845Z,135.35
2018-06-10T17:51:52.169Z,141.07
2018-06-10T17:54:23.896Z,135.35
2018-06-10T17:57:13.528Z,135.07
2018-06-10T17:59:44.979Z,136.32
2018-06-10T18:02:16.361Z,134.22
2018-06-10T18:04:47.804Z,135.60
2018-06-10T18:07:19.148Z,134.07
2018-06-10T18:09:50.595Z,136.10
2018-06-10T18:12:23.656Z,137.12
2018-06-10T18:14:55.645Z,131.15
2018-06-10T18:17:27.016Z,131.82
2018-06-10T18:20:02.424Z,130.90
2018-06-10T18:22:34.165Z,135.20
2018-06-10T18:25:05.549Z,134.05
2018-06-10T18:27:36.596Z,133.57
2018-06-10T18:30:08.227Z,135.30
2018-06-10T18:32:39.505Z,138.77
2018-06-10T18:35:10.737Z,141.50
2018-06-10T18:37:41.889Z,139.30
2018-06-10T18:40:13.181Z,147.87
2018-06-10T18:42:44.033Z,137.80
2018-06-10T18:45:15.437Z,135.63
2018-06-10T18:47:48.474Z,135.35
2018-06-10T18:50:22.317Z,134.47
2018-06-10T18:52:55.005Z,134.97
2018-06-10T18:55:26.873Z,142.22
2018-06-10T18:57:57.831Z,141.25
2018-06-10T19:00:29.333Z,143.47
2018-06-10T19:03:00.540Z,141.43
2018-06-10T19:05:31.912Z,136.43
2018-06-10T19:08:03.288Z,136.28
2018-06-10T19:10:34.581Z,132.85
2018-06-10T19:13:07.169Z,131.65
2018-06-10T19:15:38.469Z,133.70
2018-06-10T19:18:09.677Z,136.40
2018-06-10T19:20:41.168Z,133.27
2018-06-10T19:23:12.400Z,128.47
2018-06-10T19:26:05.240Z,137.05
2018-06-10T19:28:36.449Z,136.05
2018-06-10T19:31:07.718Z,136.57
2018-06-10T19:33:49.184Z,132.40
2018-06-10T19:36:20.683Z,136.50
2018-06-10T19:38:52.013Z,133.90
2018-06-10T19:41:31.413Z,159.20
2018-06-10T19:44:02.495Z,165.60
2018-06-10T19:46:33.908Z,148.25
2018-06-10T19:49:05.188Z,144.93
2018-06-10T19:51:36.783Z,141.90
2018-06-10T19:54:07.641Z,130.05
2018-06-10T19:56:39.077Z,128.12
2018-06-10T19:59:09.921Z,126.00
2018-06-10T20:01:41.033Z,131.05
2018-06-10T20:04:13.300Z,133.80
2018-06-10T20:06:44.763Z,131.55
2018-06-10T20:09:28.166Z,130.50
2018-06-10T20:12:00.086Z,130.03
2018-06-10T20:14:31.768Z,130.05
2018-06-10T20:17:03.411Z,133.65
2018-06-10T20:19:34.404Z,134.30
2018-06-10T20:22:05.829Z,128.25
2018-06-10T20:24:37.839Z,126.53
2018-06-10T20:27:09.407Z,138.12
2018-06-10T20:29:40.597Z,136.47
2018-06-10T20:32:11.960Z,134.47
2018-06-10T20:34:43.191Z,138.80
2018-06-10T20:37:14.347Z,132.60
2018-06-10T20:39:46.465Z,126.67
2018-06-10T20:42:17.877Z,129.03
2018-06-10T20:44:49.007Z,151.70
2018-06-10T20:47:19.910Z,141.88
2018-06-10T20:49:50.825Z,133.12
2018-06-10T20:52:21.750Z,134.45
2018-06-10T20:54:52.629Z,137.55
2018-06-10T20:57:23.652Z,142.62
2018-06-10T20:59:54.689Z,131.00
2018-06-10T21:02:27.445Z,131.70
2018-06-10T21:04:58.757Z,131.90
2018-06-10T21:07:50.485Z,133.20
2018-06-10T21:10:22.184Z,130.32
2018-06-10T21:12:53.638Z,132.25
2018-06-10T21:15:25.710Z,127.45
2018-06-10T21:18:01.700Z,132.85
2018-06-10T21:20:32.973Z,131.67
2018-06-10T21:23:04.501Z,133.00
2018-06-10T21:25:35.578Z,135.78
2018-06-10T21:28:06.972Z,133.63
2018-06-10T21:30:38.985Z,137.05
2018-06-10T21:33:10.530Z,136.37
2018-06-10T21:35:41.768Z,141.07
2018-06-10T21:38:13.217Z,138.95
2018-06-10T21:40:44.389Z,138.80
2018-06-10T21:43:15.841Z,143.28
2018-06-10T21:45:47.881Z,130.82
2018-06-10T21:48:19.147Z,135.32
2018-06-10T21:50:50.322Z,130.75
2018-06-10T21:53:21.444Z,136.72
2018-06-10T21:55:52.640Z,131.57
2018-06-10T21:58:24.084Z,132.15
2018-06-10T22:00:57.792Z,134.05
2018-06-10T22:03:29.232Z,132.20
2018-06-10T22:06:00.108Z,136.88
2018-06-10T22:08:31.265Z,136.30
2018-06-10T22:11:02.607Z,129.12
2018-06-10T22:13:34.029Z,140.70
2018-06-10T22:16:14.962Z,136.45
2018-06-10T22:18:46.188Z,130.37
2018-06-10T22:21:17.462Z,131.45
2018-06-10T22:23:48.820Z,135.70
2018-06-10T22:26:19.709Z,138.12
2018-06-10T22:28:50.775Z,128.35
2018-06-10T22:31:21.904Z,126.25
2018-06-10T22:33:52.768Z,128.80
2018-06-10T22:36:23.612Z,132.27
2018-06-10T22:38:54.739Z,130.30
2018-06-10T22:41:25.965Z,131.82
2018-06-10T22:43:57.198Z,133.32
2018-06-10T22:46:28.385Z,127.72
2018-06-10T22:49:00.093Z,134.10
2018-06-10T22:51:31.172Z,131.15
2018-06-10T22:55:09.042Z,130.40
2018-06-10T22:57:40.104Z,132.52
2018-06-10T23:00:11.449Z,129.25
2018-06-10T23:02:42.166Z,132.87
2018-06-10T23:05:13.388Z,137.22
2018-06-10T23:07:44.561Z,134.05
2018-06-10T23:10:20.541Z,139.07
2018-06-10T23:12:51.760Z,125.70
2018-06-10T23:15:23.340Z,131.97
2018-06-10T23:17:54.553Z,129.75
2018-06-10T23:20:26.129Z,134.15
2018-06-10T23:22:57.240Z,136.77
2018-06-10T23:25:28.638Z,137.30
2018-06-10T23:27:59.675Z,136.77
2018-06-10T23:30:31.048Z,132.95
2018-06-10T23:33:03.157Z,134.82
2018-06-10T23:35:34.416Z,133.80
2018-06-10T23:38:05.466Z,130.15
2018-06-10T23:40:36.752Z,138.20
2018-06-10T23:43:07.804Z,129.38
2018-06-10T23:45:39.177Z,129.18
2018-06-10T23:48:10.234Z,132.03
2018-06-10T23:50:41.288Z,129.97
2018-06-10T23:53:12.516Z,133.15
2018-06-10T23:55:43.982Z,129.60
2018-06-10T23:58:14.940Z,132.80
